Terminal Aerodrome Forecast
Issued by NWS

Home | Current Version | Previous Version | Text Only | Print | Product List | Glossary Off
Versions: 1 2 3 4 5 6 7 8 9 10 11 12 13

000
FTUS43 KMPX 181307 AAA
TAFRNH
TAF AMD
KRNH 181307Z 1813/1912 12005KT P6SM OVC070
     FM181700 17016G28KT P6SM OVC060
     FM190000 23007KT P6SM OVC060
     FM190200 29007KT P6SM OVC040
     FM190400 33007KT P6SM BKN030
     FM190800 01010KT 6SM -SN BR BKN020=

USA.gov is the U.S. government's official web portal to all federal, state and local government web resources and services.